createdAt,value
2022-12-11T00:01:10.634Z,20.95
2022-12-11T00:03:39.173Z,21.15
2022-12-11T00:06:08.280Z,18.10
2022-12-11T00:08:37.352Z,21.48
2022-12-11T00:11:05.468Z,20.15
2022-12-11T00:13:35.650Z,23.27
2022-12-11T00:16:04.012Z,19.92
2022-12-11T00:18:32.021Z,22.75
2022-12-11T00:21:02.022Z,21.30
2022-12-11T00:23:30.597Z,25.08
2022-12-11T00:25:58.876Z,23.58
2022-12-11T00:28:27.707Z,20.45
2022-12-11T00:30:57.040Z,19.90
2022-12-11T00:33:28.160Z,21.25
2022-12-11T00:35:56.170Z,19.45
2022-12-11T00:38:24.126Z,20.23
2022-12-11T00:40:53.174Z,20.27
2022-12-11T00:43:21.109Z,22.42
2022-12-11T00:45:50.012Z,21.30
2022-12-11T00:48:19.851Z,20.85
2022-12-11T00:50:48.309Z,21.95
2022-12-11T00:53:16.769Z,21.38
2022-12-11T00:55:45.149Z,24.13
2022-12-11T00:58:13.512Z,23.13
2022-12-11T01:00:44.096Z,22.92
2022-12-11T01:03:14.139Z,20.70
2022-12-11T01:05:52.159Z,21.33
2022-12-11T01:08:20.206Z,23.58
2022-12-11T01:10:47.619Z,22.23
2022-12-11T01:13:18.195Z,26.25
2022-12-11T01:15:46.698Z,27.48
2022-12-11T01:18:16.147Z,23.73
2022-12-11T01:20:45.852Z,25.20
2022-12-11T01:23:14.939Z,21.38
2022-12-11T01:25:43.626Z,23.50
2022-12-11T01:28:12.756Z,30.48
2022-12-11T01:30:42.889Z,31.02
2022-12-11T01:33:12.338Z,34.08
2022-12-11T01:35:40.386Z,37.15
2022-12-11T01:38:11.793Z,24.52
2022-12-11T01:40:40.384Z,30.98
2022-12-11T01:43:12.616Z,28.75
2022-12-11T01:45:45.131Z,30.88
2022-12-11T01:48:17.269Z,27.63
2022-12-11T01:50:49.649Z,31.75
2022-12-11T01:53:24.726Z,32.30
2022-12-11T01:55:57.124Z,33.53
2022-12-11T01:58:28.483Z,33.85
2022-12-11T02:00:58.387Z,36.10
2022-12-11T02:03:26.417Z,38.72
2022-12-11T02:05:55.576Z,31.10
2022-12-11T02:08:25.465Z,34.13
2022-12-11T02:13:36.823Z,34.72
2022-12-11T02:16:11.352Z,37.30
2022-12-11T02:18:43.594Z,36.80
2022-12-11T02:21:17.879Z,35.63
2022-12-11T02:24:12.382Z,33.70
2022-12-11T02:27:11.831Z,40.90
2022-12-11T02:32:18.039Z,41.58
2022-12-11T02:34:52.166Z,45.00
2022-12-11T02:37:24.258Z,41.65
2022-12-11T02:39:56.925Z,44.80
2022-12-11T02:42:29.774Z,39.92
2022-12-11T02:45:02.506Z,42.15
2022-12-11T02:47:33.184Z,40.08
2022-12-11T02:50:08.746Z,42.50
2022-12-11T02:52:38.763Z,40.63
2022-12-11T02:55:10.500Z,42.22
2022-12-11T02:57:44.078Z,50.92
2022-12-11T03:00:17.165Z,40.95
2022-12-11T03:02:46.087Z,42.53
2022-12-11T03:05:15.409Z,41.20
2022-12-11T03:07:46.258Z,47.22
2022-12-11T03:10:18.917Z,40.25
2022-12-11T03:12:53.415Z,48.40
2022-12-11T03:15:30.272Z,42.30
2022-12-11T03:18:05.145Z,43.20
2022-12-11T03:20:39.173Z,47.03
2022-12-11T03:23:17.762Z,44.38
2022-12-11T03:25:52.629Z,54.45
2022-12-11T03:28:27.768Z,48.35
2022-12-11T03:30:58.098Z,46.22
2022-12-11T03:33:32.541Z,46.38
2022-12-11T03:36:04.221Z,42.63
2022-12-11T03:38:37.184Z,48.28
2022-12-11T03:41:08.302Z,41.80
2022-12-11T03:43:38.330Z,50.30
2022-12-11T03:46:10.668Z,46.22
2022-12-11T03:48:43.740Z,43.40
2022-12-11T03:51:11.735Z,50.40
2022-12-11T03:53:40.654Z,39.13
2022-12-11T03:56:11.822Z,43.97
2022-12-11T03:58:40.279Z,49.80
2022-12-11T04:01:11.903Z,46.35
2022-12-11T04:03:41.501Z,49.85
2022-12-11T04:06:09.529Z,55.60
2022-12-11T04:08:38.386Z,43.15
2022-12-11T04:11:24.040Z,60.90
2022-12-11T04:14:13.069Z,52.55
2022-12-11T04:16:41.447Z,64.05
2022-12-11T04:19:28.534Z,50.88
2022-12-11T04:22:13.891Z,51.33
2022-12-11T04:24:42.190Z,42.60
2022-12-11T04:27:10.116Z,55.85
2022-12-11T04:29:39.125Z,49.35
2022-12-11T04:32:08.461Z,64.32
2022-12-11T04:34:36.930Z,47.80
2022-12-11T04:37:05.292Z,48.33
2022-12-11T04:39:33.295Z,50.00
2022-12-11T04:42:01.217Z,47.83
2022-12-11T04:44:30.226Z,40.08
2022-12-11T04:46:58.125Z,48.72
2022-12-11T04:49:27.818Z,43.55
2022-12-11T04:51:56.785Z,52.65
2022-12-11T04:54:24.851Z,48.20
2022-12-11T04:56:53.241Z,47.10
2022-12-11T04:59:21.773Z,52.05
2022-12-11T05:01:49.889Z,48.28
2022-12-11T05:04:17.901Z,50.25
2022-12-11T05:06:50.285Z,46.10
2022-12-11T05:09:18.558Z,48.95
2022-12-11T05:11:47.040Z,52.75
2022-12-11T05:14:15.037Z,53.53
2022-12-11T05:16:42.969Z,53.17
2022-12-11T05:19:11.893Z,47.42
2022-12-11T05:21:39.830Z,45.90
2022-12-11T05:24:10.289Z,48.53
2022-12-11T05:29:06.550Z,52.65
2022-12-11T05:31:35.076Z,46.78
2022-12-11T05:34:03.889Z,52.92
2022-12-11T05:36:34.033Z,47.38
2022-12-11T05:39:03.974Z,49.47
2022-12-11T05:41:33.939Z,45.22
2022-12-11T05:44:02.403Z,48.65
2022-12-11T05:46:32.356Z,43.17
2022-12-11T05:49:02.377Z,40.17
2022-12-11T05:51:32.131Z,40.75
2022-12-11T05:54:00.098Z,45.63
2022-12-11T05:56:29.463Z,45.70
2022-12-11T05:59:00.867Z,43.00
2022-12-11T06:01:31.505Z,38.55
2022-12-11T06:04:01.371Z,38.25
2022-12-11T06:06:29.529Z,30.38
2022-12-11T06:08:59.308Z,32.67
2022-12-11T06:11:30.902Z,33.83
2022-12-11T06:14:02.035Z,32.80
2022-12-11T06:16:30.630Z,35.70
2022-12-11T06:18:59.028Z,36.67
2022-12-11T06:21:31.139Z,37.83
2022-12-11T06:24:01.548Z,36.92
2022-12-11T06:26:30.408Z,38.35
2022-12-11T06:28:58.370Z,31.35
2022-12-11T06:31:28.709Z,31.23
2022-12-11T06:36:25.669Z,23.10
2022-12-11T06:38:56.232Z,27.98
2022-12-11T06:41:24.172Z,29.48
2022-12-11T06:43:52.580Z,34.28
2022-12-11T06:46:21.726Z,34.53
2022-12-11T06:48:51.322Z,35.08
2022-12-11T06:51:23.006Z,41.15
2022-12-11T06:53:52.999Z,37.42
2022-12-11T06:56:21.912Z,33.80
2022-12-11T06:58:50.508Z,35.45
2022-12-11T07:01:20.801Z,28.65
2022-12-11T07:03:49.342Z,38.00
2022-12-11T07:06:19.046Z,41.75
2022-12-11T07:08:47.001Z,37.95
2022-12-11T07:11:17.312Z,39.65
2022-12-11T07:13:46.359Z,41.08
2022-12-11T07:16:16.091Z,38.83
2022-12-11T07:18:48.802Z,36.58
2022-12-11T07:21:18.966Z,45.88
2022-12-11T07:23:47.947Z,37.83
2022-12-11T07:26:17.835Z,37.75
2022-12-11T07:31:16.224Z,37.45
2022-12-11T07:33:45.197Z,35.28
2022-12-11T07:36:14.652Z,37.70
2022-12-11T07:41:15.186Z,38.80
2022-12-11T07:43:44.969Z,40.47
2022-12-11T07:46:15.876Z,36.60
2022-12-11T07:48:45.227Z,45.35
2022-12-11T07:51:16.544Z,30.88
2022-12-11T07:53:48.506Z,37.40
2022-12-11T07:56:18.230Z,40.72
2022-12-11T07:58:46.681Z,37.40
2022-12-11T08:01:16.803Z,41.60
2022-12-11T08:03:46.122Z,46.40
2022-12-11T08:06:14.900Z,37.03
2022-12-11T08:08:44.289Z,38.78
2022-12-11T08:11:15.908Z,39.47
2022-12-11T08:13:46.009Z,34.38
2022-12-11T08:16:15.790Z,34.67
2022-12-11T08:18:45.862Z,37.88
2022-12-11T08:21:15.873Z,33.97
2022-12-11T08:23:45.634Z,36.92
2022-12-11T08:26:17.340Z,40.80
2022-12-11T08:28:45.462Z,37.53
2022-12-11T08:31:15.693Z,36.08
2022-12-11T08:33:44.870Z,37.97
2022-12-11T08:36:15.211Z,38.80
2022-12-11T08:38:43.475Z,30.45
2022-12-11T08:41:12.470Z,33.60
2022-12-11T08:43:42.548Z,30.55
2022-12-11T08:46:14.322Z,30.52
2022-12-11T08:51:15.294Z,31.67
2022-12-11T08:53:43.585Z,35.28
2022-12-11T08:56:13.718Z,29.90
2022-12-11T08:58:44.414Z,27.67
2022-12-11T09:01:14.121Z,33.47
2022-12-11T09:03:42.773Z,34.63
2022-12-11T09:06:14.609Z,26.20
2022-12-11T09:08:48.570Z,32.05
2022-12-11T09:11:23.366Z,29.98
2022-12-11T09:13:52.915Z,32.42
2022-12-11T09:16:22.195Z,31.65
2022-12-11T09:18:52.777Z,28.52
2022-12-11T09:21:22.513Z,29.80
2022-12-11T09:23:53.920Z,28.52
2022-12-11T09:26:22.566Z,25.60
2022-12-11T09:28:54.322Z,25.60
2022-12-11T09:31:24.882Z,23.52
2022-12-11T09:33:56.868Z,29.77
2022-12-11T09:36:25.473Z,26.42
2022-12-11T09:38:53.660Z,23.67
2022-12-11T09:41:37.121Z,28.13
2022-12-11T09:44:19.212Z,29.80
2022-12-11T09:46:49.086Z,25.27
2022-12-11T09:49:26.667Z,27.63
2022-12-11T09:52:03.640Z,23.25
2022-12-11T09:54:31.794Z,22.77
2022-12-11T09:57:06.783Z,22.92
2022-12-11T09:59:46.842Z,26.38
2022-12-11T10:02:27.195Z,20.88
2022-12-11T10:05:04.703Z,23.98
2022-12-11T10:07:36.476Z,24.13
2022-12-11T10:10:12.880Z,22.83
2022-12-11T10:12:48.939Z,23.90
2022-12-11T10:15:36.229Z,24.98
2022-12-11T10:18:07.161Z,28.85
2022-12-11T10:20:43.096Z,21.98
2022-12-11T10:23:18.005Z,20.45
2022-12-11T10:25:51.424Z,24.48
2022-12-11T10:28:21.714Z,21.70
2022-12-11T10:30:59.136Z,23.15
2022-12-11T10:33:35.759Z,22.55
2022-12-11T10:36:05.417Z,23.80
2022-12-11T10:38:36.292Z,24.13
2022-12-11T10:41:06.881Z,20.33
2022-12-11T10:43:37.291Z,22.30
2022-12-11T10:48:38.200Z,18.50
2022-12-11T10:51:09.351Z,27.13
2022-12-11T10:53:37.786Z,28.02
2022-12-11T10:56:06.684Z,30.80
2022-12-11T10:58:39.823Z,24.65
2022-12-11T11:01:12.199Z,31.85
2022-12-11T11:03:54.524Z,31.58
2022-12-11T11:06:25.097Z,31.83
2022-12-11T11:08:54.806Z,27.25
2022-12-11T11:11:29.495Z,27.33
2022-12-11T11:14:16.744Z,26.88
2022-12-11T11:16:48.082Z,27.80
2022-12-11T11:19:23.364Z,30.20
2022-12-11T11:21:54.109Z,25.88
2022-12-11T11:24:32.649Z,28.98
2022-12-11T11:27:13.255Z,21.50
2022-12-11T11:29:42.628Z,27.50
2022-12-11T11:32:21.416Z,24.58
2022-12-11T11:34:49.551Z,21.50
2022-12-11T11:37:26.337Z,25.80
2022-12-11T11:39:59.120Z,20.85
2022-12-11T11:42:37.269Z,20.65
2022-12-11T11:45:12.152Z,22.35
2022-12-11T11:47:50.715Z,24.45
2022-12-11T11:50:24.143Z,16.80
2022-12-11T11:52:58.902Z,21.00
2022-12-11T11:55:39.571Z,22.02
2022-12-11T11:58:14.394Z,26.23
2022-12-11T12:00:43.572Z,22.73
2022-12-11T12:03:16.513Z,24.70
2022-12-11T12:05:52.271Z,17.77
2022-12-11T12:08:30.417Z,20.08
2022-12-11T12:11:06.589Z,21.25
2022-12-11T12:13:49.616Z,20.70
2022-12-11T12:16:52.146Z,19.15
2022-12-11T12:19:36.367Z,16.95
2022-12-11T12:22:15.681Z,21.00
2022-12-11T12:24:53.706Z,18.45
2022-12-11T12:27:51.463Z,17.35
2022-12-11T12:30:22.979Z,18.90
2022-12-11T12:33:06.990Z,19.73
2022-12-11T12:35:38.615Z,18.80
2022-12-11T12:38:17.938Z,19.50
2022-12-11T12:40:58.239Z,22.70
2022-12-11T12:44:00.560Z,17.15
2022-12-11T12:46:44.183Z,17.63
2022-12-11T12:49:18.587Z,15.02
2022-12-11T12:51:48.665Z,13.93
2022-12-11T12:54:19.804Z,14.88
2022-12-11T12:56:49.049Z,11.75
2022-12-11T12:59:22.697Z,13.32
2022-12-11T13:01:56.190Z,9.52
2022-12-11T13:04:55.473Z,12.80
2022-12-11T13:07:29.963Z,9.55
2022-12-11T13:10:01.757Z,12.23
2022-12-11T13:12:44.411Z,12.40
2022-12-11T13:15:36.081Z,10.32
2022-12-11T13:18:08.361Z,12.35
2022-12-11T13:20:51.144Z,13.40
2022-12-11T13:23:28.871Z,13.63
2022-12-11T13:25:59.636Z,11.52
2022-12-11T13:28:35.214Z,10.88
2022-12-11T13:31:07.758Z,9.82
2022-12-11T13:33:43.930Z,10.32
2022-12-11T13:36:31.860Z,12.15
2022-12-11T13:39:03.770Z,11.60
2022-12-11T13:41:35.350Z,12.88
2022-12-11T13:44:04.366Z,12.45
2022-12-11T13:46:37.260Z,12.63
2022-12-11T13:49:07.061Z,11.60
2022-12-11T13:51:37.081Z,13.32
2022-12-11T13:54:17.254Z,14.60
2022-12-11T13:57:00.906Z,14.80
2022-12-11T13:59:35.550Z,14.10
2022-12-11T14:02:11.299Z,17.10
2022-12-11T14:04:40.717Z,16.98
2022-12-11T14:07:11.738Z,14.65
2022-12-11T14:09:45.840Z,14.48
2022-12-11T14:12:19.494Z,12.68
2022-12-11T14:14:52.642Z,12.38
2022-12-11T14:17:27.181Z,16.42
2022-12-11T14:19:57.290Z,14.38
2022-12-11T14:24:57.050Z,14.32
2022-12-11T14:27:26.343Z,17.08
2022-12-11T14:29:54.731Z,16.27
2022-12-11T14:32:31.824Z,18.03
2022-12-11T14:35:03.249Z,15.10
2022-12-11T14:37:36.064Z,16.08
2022-12-11T14:40:08.971Z,14.68
2022-12-11T14:42:41.915Z,15.38
2022-12-11T14:45:19.244Z,15.77
2022-12-11T14:47:48.880Z,14.63
2022-12-11T14:50:20.745Z,11.75
2022-12-11T14:52:52.640Z,18.33
2022-12-11T14:55:26.339Z,18.20
2022-12-11T14:57:58.866Z,17.95
2022-12-11T15:00:29.283Z,14.35
2022-12-11T15:03:00.415Z,14.07
2022-12-11T15:05:29.138Z,16.50
2022-12-11T15:08:00.652Z,16.85
2022-12-11T15:10:35.516Z,18.73
2022-12-11T15:13:05.566Z,14.55
2022-12-11T15:15:39.466Z,18.35
2022-12-11T15:18:20.736Z,15.18
2022-12-11T15:20:52.707Z,15.57
2022-12-11T15:23:21.612Z,17.60
2022-12-11T15:25:56.182Z,16.90
2022-12-11T15:28:29.780Z,15.88
2022-12-11T15:30:59.650Z,20.10
2022-12-11T15:33:32.655Z,16.10
2022-12-11T15:36:05.914Z,17.80
2022-12-11T15:38:36.708Z,16.63
2022-12-11T15:41:08.207Z,15.23
2022-12-11T15:43:38.719Z,13.43
2022-12-11T15:46:08.144Z,14.73
2022-12-11T15:48:36.167Z,14.03
2022-12-11T15:51:04.808Z,17.70
2022-12-11T15:53:33.219Z,14.13
2022-12-11T15:56:01.298Z,14.45
2022-12-11T15:58:31.343Z,16.33
2022-12-11T16:01:02.096Z,14.93
2022-12-11T16:03:30.064Z,12.32
2022-12-11T16:05:58.337Z,12.23
2022-12-11T16:08:28.811Z,16.67
2022-12-11T16:13:24.656Z,17.85
2022-12-11T16:15:55.989Z,16.88
2022-12-11T16:18:25.947Z,16.50
2022-12-11T16:20:54.482Z,17.50
2022-12-11T16:23:22.864Z,16.13
2022-12-11T16:25:52.368Z,15.25
2022-12-11T16:28:22.298Z,17.33
2022-12-11T16:30:50.371Z,18.42
2022-12-11T16:33:20.728Z,18.70
2022-12-11T16:35:49.551Z,12.77
2022-12-11T16:38:17.894Z,18.05
2022-12-11T16:40:46.623Z,15.88
2022-12-11T16:43:15.027Z,13.70
2022-12-11T16:45:45.011Z,11.35
2022-12-11T16:48:12.979Z,14.35
2022-12-11T16:50:43.218Z,17.98
2022-12-11T16:53:14.529Z,14.35
2022-12-11T16:55:43.366Z,14.65
2022-12-11T16:58:15.930Z,14.35
2022-12-11T17:00:44.821Z,13.93
2022-12-11T17:03:12.791Z,14.80
2022-12-11T17:05:43.504Z,14.95
2022-12-11T17:08:14.014Z,13.20
2022-12-11T17:10:43.393Z,17.42
2022-12-11T17:13:11.746Z,17.50
2022-12-11T17:15:42.268Z,16.13
2022-12-11T17:18:10.801Z,25.35
2022-12-11T17:20:43.330Z,21.42
2022-12-11T17:23:12.102Z,18.55
2022-12-11T17:25:42.181Z,18.50
2022-12-11T17:28:11.543Z,15.53
2022-12-11T17:30:41.853Z,17.10
2022-12-11T17:33:11.350Z,16.02
2022-12-11T17:35:39.734Z,16.73
2022-12-11T17:38:09.522Z,16.20
2022-12-11T17:40:42.570Z,14.77
2022-12-11T17:43:11.085Z,16.95
2022-12-11T17:45:42.238Z,16.75
2022-12-11T17:48:11.680Z,17.15
2022-12-11T17:50:41.540Z,18.15
2022-12-11T17:53:13.472Z,19.73
2022-12-11T17:55:42.862Z,16.40
2022-12-11T17:58:11.569Z,16.50
2022-12-11T18:00:40.599Z,16.93
2022-12-11T18:03:08.724Z,17.67
2022-12-11T18:05:44.420Z,17.88
2022-12-11T18:08:16.949Z,15.40
2022-12-11T18:10:45.534Z,15.38
2022-12-11T18:13:14.527Z,16.98
2022-12-11T18:15:43.067Z,20.60
2022-12-11T18:18:12.013Z,16.30
2022-12-11T18:20:40.849Z,16.60
2022-12-11T18:23:09.216Z,16.50
2022-12-11T18:25:38.651Z,17.50
2022-12-11T18:30:35.386Z,14.95
2022-12-11T18:33:04.004Z,17.50
2022-12-11T18:35:32.035Z,17.65
2022-12-11T18:38:00.580Z,19.45
2022-12-11T18:40:29.405Z,15.65
2022-12-11T18:42:59.019Z,16.23
2022-12-11T18:47:57.007Z,16.27
2022-12-11T18:50:26.960Z,17.88
2022-12-11T18:52:55.888Z,18.00
2022-12-11T18:55:24.638Z,13.33
2022-12-11T18:57:52.602Z,19.23
2022-12-11T19:00:23.109Z,14.63
2022-12-11T19:02:52.781Z,15.27
2022-12-11T19:05:21.264Z,14.55
2022-12-11T19:07:49.790Z,16.33
2022-12-11T19:10:18.286Z,16.83
2022-12-11T19:12:46.308Z,18.00
2022-12-11T19:15:16.567Z,14.55
2022-12-11T19:17:48.780Z,19.10
2022-12-11T19:23:05.001Z,13.68
2022-12-11T19:25:33.855Z,14.80
2022-12-11T19:28:02.173Z,17.27
2022-12-11T19:30:30.788Z,14.88
2022-12-11T19:33:00.197Z,14.15
2022-12-11T19:35:28.295Z,13.13
2022-12-11T19:37:57.358Z,13.85
2022-12-11T19:40:26.230Z,10.70
2022-12-11T19:42:54.497Z,14.80
2022-12-11T19:45:23.359Z,12.07
2022-12-11T19:47:51.231Z,12.98
2022-12-11T19:50:20.956Z,13.77
2022-12-11T19:52:49.354Z,13.50
2022-12-11T19:55:19.623Z,15.05
2022-12-11T19:57:48.071Z,17.50
2022-12-11T20:00:17.154Z,17.42
2022-12-11T20:02:45.544Z,17.77
2022-12-11T20:05:14.333Z,16.70
2022-12-11T20:07:46.180Z,15.30
2022-12-11T20:10:15.772Z,16.33
2022-12-11T20:15:12.947Z,15.00
2022-12-11T20:17:43.961Z,16.13
2022-12-11T20:20:13.095Z,14.38
2022-12-11T20:22:41.606Z,17.60
2022-12-11T20:25:11.436Z,17.52
2022-12-11T20:27:40.422Z,17.08
2022-12-11T20:30:09.911Z,13.55
2022-12-11T20:32:38.030Z,14.40
2022-12-11T20:35:08.055Z,15.07
2022-12-11T20:37:37.023Z,14.50
2022-12-11T20:40:06.937Z,16.85
2022-12-11T20:42:37.162Z,15.85
2022-12-11T20:45:06.210Z,18.15
2022-12-11T20:47:36.095Z,17.00
2022-12-11T20:50:05.572Z,20.02
2022-12-11T20:52:33.568Z,14.95
2022-12-11T20:55:03.141Z,16.58
2022-12-11T20:57:32.272Z,19.52
2022-12-11T21:00:01.654Z,17.45
2022-12-11T21:02:30.860Z,17.48
2022-12-11T21:04:59.701Z,15.60
2022-12-11T21:07:27.761Z,18.63
2022-12-11T21:09:55.788Z,20.33
2022-12-11T21:12:28.312Z,20.08
2022-12-11T21:15:01.148Z,17.88
2022-12-11T21:17:30.030Z,20.13
2022-12-11T21:19:57.989Z,23.50
2022-12-11T21:22:26.420Z,21.63
2022-12-11T21:24:54.989Z,25.75
2022-12-11T21:27:24.606Z,21.30
2022-12-11T21:29:53.418Z,18.35
2022-12-11T21:32:24.697Z,23.13
2022-12-11T21:34:55.427Z,23.83
2022-12-11T21:37:24.428Z,24.42
2022-12-11T21:39:55.577Z,18.98
2022-12-11T21:42:24.627Z,19.60
2022-12-11T21:47:42.929Z,20.63
2022-12-11T21:50:11.067Z,18.95
2022-12-11T21:52:40.916Z,22.23
2022-12-11T21:55:09.993Z,20.05
2022-12-11T21:57:38.121Z,19.25
2022-12-11T22:00:08.075Z,22.33
2022-12-11T22:02:41.191Z,21.70
2022-12-11T22:07:40.298Z,21.60
2022-12-11T22:10:09.015Z,23.83
2022-12-11T22:12:37.884Z,24.23
2022-12-11T22:15:07.136Z,20.40
2022-12-11T22:17:37.589Z,20.42
2022-12-11T22:20:06.929Z,22.85
2022-12-11T22:22:36.251Z,20.15
2022-12-11T22:25:08.228Z,21.98
2022-12-11T22:27:36.442Z,18.70
2022-12-11T22:30:05.422Z,24.63
2022-12-11T22:32:34.320Z,22.38
2022-12-11T22:35:02.421Z,22.15
2022-12-11T22:37:30.844Z,25.88
2022-12-11T22:40:00.596Z,24.75
2022-12-11T22:42:28.619Z,28.17
2022-12-11T22:44:56.497Z,23.13
2022-12-11T22:47:25.390Z,24.92
2022-12-11T22:49:53.360Z,21.88
2022-12-11T22:52:21.740Z,24.75
2022-12-11T22:54:50.433Z,24.65
2022-12-11T22:57:19.752Z,23.25
2022-12-11T22:59:48.394Z,21.52
2022-12-11T23:02:16.728Z,24.63
2022-12-11T23:04:44.734Z,29.05
2022-12-11T23:07:13.709Z,23.95
2022-12-11T23:09:41.741Z,26.50
2022-12-11T23:12:10.296Z,26.05
2022-12-11T23:14:40.246Z,25.80
2022-12-11T23:17:08.320Z,27.40
2022-12-11T23:19:36.336Z,21.58
2022-12-11T23:22:05.444Z,21.50
2022-12-11T23:24:33.415Z,28.27
2022-12-11T23:27:02.815Z,25.52
2022-12-11T23:29:30.827Z,25.55
2022-12-11T23:32:00.656Z,26.38
2022-12-11T23:34:29.644Z,29.73
2022-12-11T23:36:57.558Z,30.40
2022-12-11T23:39:25.973Z,27.52
2022-12-11T23:41:54.368Z,27.13
2022-12-11T23:44:22.584Z,26.27
2022-12-11T23:46:50.502Z,27.23
2022-12-11T23:49:20.833Z,30.15
2022-12-11T23:51:48.772Z,29.98
2022-12-11T23:54:17.184Z,31.52
2022-12-11T23:56:45.541Z,32.53
2022-12-11T23:59:13.686Z,32.72
